Time;durP1;ratioP1;P1;durP2;ratioP2;P2;SDS_P1;SDS_P2;PMS_P1;PMS_P2;Temp;Humidity;BMP_temperature;BMP_pressure;BME280_temperature;BME280_humidity;BME280_pressure;Samples;Min_cycle;Max_cycle;Signal;HPM_P1;HPM_P2
2021/12/08 00:01:56;;;;;;;35.58;21.35;;;;;;;;;;6211721;28;20103;-64
2021/12/08 00:04:57;;;;;;;30.17;17.90;;;;;;;;;;6219318;28;20115;-65
2021/12/08 00:08:01;;;;;;;31.75;18.67;;;;;;;;;;6216274;28;20059;-65
2021/12/08 00:14:21;;;;;;;32.70;19.73;;;;;;;;;;6207877;28;20042;-64
2021/12/08 00:17:22;;;;;;;37.50;19.50;;;;;;;;;;6204876;28;20195;-65
2021/12/08 00:20:27;;;;;;;31.27;19.60;;;;;;;;;;6231277;28;20107;-65
2021/12/08 00:23:30;;;;;;;35.88;19.40;;;;;;;;;;6228546;28;20061;-65
2021/12/08 00:26:32;;;;;;;36.13;19.93;;;;;;;;;;6225673;28;20405;-65
2021/12/08 00:29:34;;;;;;;37.10;20.23;;;;;;;;;;6227262;28;20060;-64
2021/12/08 00:32:36;;;;;;;31.23;18.95;;;;;;;;;;6215868;28;20072;-66
2021/12/08 00:35:40;;;;;;;33.30;19.05;;;;;;;;;;6218827;28;20056;-65
2021/12/08 00:38:43;;;;;;;32.95;19.70;;;;;;;;;;6227103;28;20046;-64
2021/12/08 00:41:45;;;;;;;30.95;19.30;;;;;;;;;;6224277;28;20126;-65
2021/12/08 00:44:47;;;;;;;32.13;18.83;;;;;;;;;;6231352;28;20519;-65
2021/12/08 00:47:49;;;;;;;34.08;20.20;;;;;;;;;;6211747;28;20049;-65
2021/12/08 00:50:51;;;;;;;33.53;19.48;;;;;;;;;;6215924;28;20046;-65
2021/12/08 00:53:54;;;;;;;35.20;19.08;;;;;;;;;;6234021;28;20183;-64
2021/12/08 00:56:57;;;;;;;33.25;19.42;;;;;;;;;;6221246;28;20128;-65
2021/12/08 01:00:00;;;;;;;32.22;18.92;;;;;;;;;;6227741;28;20049;-64
2021/12/08 01:03:02;;;;;;;27.30;18.60;;;;;;;;;;6206924;28;20087;-64
2021/12/08 01:06:06;;;;;;;33.65;20.13;;;;;;;;;;6216780;28;20497;-65
2021/12/08 01:09:09;;;;;;;26.13;17.80;;;;;;;;;;6226411;28;20427;-64
2021/12/08 01:12:11;;;;;;;31.80;18.85;;;;;;;;;;6215142;28;20054;-64
2021/12/08 01:15:12;;;;;;;30.95;18.42;;;;;;;;;;6214594;28;20045;-65
2021/12/08 01:18:14;;;;;;;35.00;18.95;;;;;;;;;;6220026;28;20041;-65
2021/12/08 01:21:17;;;;;;;31.08;19.95;;;;;;;;;;6220467;28;20166;-64
2021/12/08 01:24:21;;;;;;;34.30;19.48;;;;;;;;;;6231969;28;20049;-64
2021/12/08 01:27:22;;;;;;;28.75;17.95;;;;;;;;;;6220452;28;20045;-65
2021/12/08 01:30:24;;;;;;;37.45;18.48;;;;;;;;;;6215154;28;20976;-65
2021/12/08 01:33:27;;;;;;;31.73;19.77;;;;;;;;;;6229698;28;20041;-65
2021/12/08 01:36:29;;;;;;;33.95;20.27;;;;;;;;;;6209036;28;20053;-65
2021/12/08 01:39:32;;;;;;;29.42;18.65;;;;;;;;;;6229629;28;20072;-64
2021/12/08 01:42:41;;;;;;;28.48;18.75;;;;;;;;;;6223577;28;20041;-64
2021/12/08 01:45:59;;;;;;;32.08;19.10;;;;;;;;;;6218171;28;20167;-65
2021/12/08 01:49:02;;;;;;;30.88;18.77;;;;;;;;;;6228959;28;20509;-65
2021/12/08 01:52:04;;;;;;;31.40;19.50;;;;;;;;;;6212790;28;20659;-64
2021/12/08 01:55:09;;;;;;;32.63;19.48;;;;;;;;;;6226471;28;20162;-65
2021/12/08 01:58:12;;;;;;;35.78;20.23;;;;;;;;;;6220087;28;20049;-65
2021/12/08 02:01:16;;;;;;;31.42;19.90;;;;;;;;;;6210913;28;20044;-64
2021/12/08 02:04:18;;;;;;;31.20;19.38;;;;;;;;;;6228775;28;20497;-64
2021/12/08 02:07:20;;;;;;;33.38;19.42;;;;;;;;;;6206999;28;20397;-64
2021/12/08 02:10:23;;;;;;;34.97;20.23;;;;;;;;;;6215363;28;20056;-65
2021/12/08 02:13:27;;;;;;;32.23;20.73;;;;;;;;;;6214204;28;20054;-64
2021/12/08 02:16:30;;;;;;;37.25;20.23;;;;;;;;;;6208615;28;20103;-64
2021/12/08 02:19:32;;;;;;;34.50;20.30;;;;;;;;;;6223763;28;20050;-65
2021/12/08 02:22:35;;;;;;;34.97;21.10;;;;;;;;;;6218675;28;20054;-64
2021/12/08 02:25:36;;;;;;;31.10;20.00;;;;;;;;;;6222499;28;20045;-64
2021/12/08 02:28:38;;;;;;;36.45;20.00;;;;;;;;;;6227690;28;20124;-65
2021/12/08 02:31:48;;;;;;;33.78;20.48;;;;;;;;;;6210472;28;20046;-65
2021/12/08 02:48:11;;;;;;;33.42;20.80;;;;;;;;;;6224657;28;20874;-65
2021/12/08 02:51:13;;;;;;;31.45;19.95;;;;;;;;;;6222545;28;20053;-64
2021/12/08 02:54:16;;;;;;;34.90;21.15;;;;;;;;;;6241729;28;20052;-65
2021/12/08 02:57:20;;;;;;;36.17;20.02;;;;;;;;;;6229051;28;20171;-65
2021/12/08 03:00:25;;;;;;;36.47;20.65;;;;;;;;;;6221657;28;20075;-65
2021/12/08 03:03:27;;;;;;;32.25;19.98;;;;;;;;;;6227021;28;20132;-65
2021/12/08 03:06:29;;;;;;;35.25;21.40;;;;;;;;;;6219250;28;20503;-64
2021/12/08 03:09:32;;;;;;;34.35;20.30;;;;;;;;;;6227520;28;20046;-65
2021/12/08 03:12:34;;;;;;;33.33;19.77;;;;;;;;;;6214794;28;20060;-64
2021/12/08 03:15:37;;;;;;;35.42;20.17;;;;;;;;;;6218544;28;20041;-65
2021/12/08 03:18:40;;;;;;;34.50;20.27;;;;;;;;;;6224899;28;20710;-65
2021/12/08 03:21:42;;;;;;;34.63;20.70;;;;;;;;;;6221535;28;20061;-65
2021/12/08 03:24:47;;;;;;;33.92;20.30;;;;;;;;;;6221960;28;20042;-65
2021/12/08 03:27:53;;;;;;;32.03;19.63;;;;;;;;;;6219300;28;20076;-64
2021/12/08 03:31:02;;;;;;;31.73;19.98;;;;;;;;;;6210787;28;20053;-65
2021/12/08 03:34:04;;;;;;;32.75;19.90;;;;;;;;;;6225662;28;20045;-65
2021/12/08 03:37:07;;;;;;;33.28;19.20;;;;;;;;;;6213628;28;20104;-65
2021/12/08 03:40:13;;;;;;;35.47;19.65;;;;;;;;;;6222814;28;20147;-65
2021/12/08 03:43:15;;;;;;;33.67;19.50;;;;;;;;;;6216450;28;20046;-65
2021/12/08 03:46:18;;;;;;;31.80;19.17;;;;;;;;;;6214234;28;20050;-65
2021/12/08 03:49:22;;;;;;;31.25;18.63;;;;;;;;;;6230249;28;20528;-65
2021/12/08 03:52:24;;;;;;;31.63;17.73;;;;;;;;;;6221700;28;20468;-65
2021/12/08 03:55:27;;;;;;;30.42;18.50;;;;;;;;;;6230059;28;21047;-65
2021/12/08 03:58:29;;;;;;;35.67;20.00;;;;;;;;;;6234751;28;20045;-65
2021/12/08 04:01:30;;;;;;;28.60;18.27;;;;;;;;;;6224549;28;20493;-65
2021/12/08 04:04:40;;;;;;;31.83;18.17;;;;;;;;;;6235159;28;20108;-65
2021/12/08 04:07:45;;;;;;;27.83;17.60;;;;;;;;;;6217914;28;20060;-65
2021/12/08 04:10:50;;;;;;;29.17;17.52;;;;;;;;;;6223538;28;20049;-65
2021/12/08 04:13:55;;;;;;;29.13;17.08;;;;;;;;;;6234327;28;20119;-65
2021/12/08 04:17:00;;;;;;;30.30;18.10;;;;;;;;;;6213060;28;20103;-65
2021/12/08 04:20:09;;;;;;;26.05;16.65;;;;;;;;;;6226708;28;20166;-65
2021/12/08 04:23:13;;;;;;;33.22;17.90;;;;;;;;;;6227409;28;20132;-65
2021/12/08 04:26:19;;;;;;;;;;;;;;;;;;6222607;28;20119;-65
2021/12/08 04:29:26;;;;;;;26.52;16.55;;;;;;;;;;6233725;28;20012;-64
2021/12/08 04:32:30;;;;;;;26.42;17.38;;;;;;;;;;6214333;28;20053;-65
2021/12/08 04:35:32;;;;;;;27.77;16.98;;;;;;;;;;6216853;28;20057;-65
2021/12/08 04:38:39;;;;;;;27.05;17.33;;;;;;;;;;6229437;28;20128;-65
2021/12/08 04:41:47;;;;;;;26.77;17.02;;;;;;;;;;6209487;28;20064;-65
2021/12/08 04:44:55;;;;;;;28.33;17.40;;;;;;;;;;6228093;28;20124;-65
2021/12/08 04:48:13;;;;;;;27.98;17.88;;;;;;;;;;6219557;28;20057;-65
2021/12/08 05:01:33;;;;;;;33.08;18.95;;;;;;;;;;6212709;28;20400;-65
2021/12/08 05:04:50;;;;;;;32.05;19.23;;;;;;;;;;6227878;28;20076;-64
2021/12/08 05:07:57;;;;;;;31.42;18.08;;;;;;;;;;6222674;28;20059;-64
2021/12/08 05:10:58;;;;;;;29.77;18.35;;;;;;;;;;6218083;28;20414;-65
2021/12/08 05:14:04;;;;;;;33.85;17.90;;;;;;;;;;6228202;28;20185;-64
2021/12/08 05:17:08;;;;;;;31.48;18.02;;;;;;;;;;6215488;28;20062;-64
2021/12/08 05:20:14;;;;;;;31.40;17.42;;;;;;;;;;6219676;28;20375;-65
2021/12/08 05:23:22;;;;;;;37.13;19.13;;;;;;;;;;6228271;28;20548;-64
2021/12/08 05:26:28;;;;;;;30.30;18.17;;;;;;;;;;6218244;28;20607;-64
2021/12/08 05:29:36;;;;;;;34.53;18.02;;;;;;;;;;6234931;28;20045;-65
2021/12/08 05:32:41;;;;;;;31.33;19.20;;;;;;;;;;6210087;28;20145;-64
2021/12/08 05:35:43;;;;;;;35.70;20.33;;;;;;;;;;6230274;28;20581;-64
2021/12/08 05:38:46;;;;;;;33.53;18.52;;;;;;;;;;6230726;28;20199;-65
2021/12/08 05:41:50;;;;;;;32.28;19.13;;;;;;;;;;6217071;28;20782;-64
2021/12/08 05:44:53;;;;;;;;;;;;;;;;;;6232753;28;20176;-64
2021/12/08 05:47:55;;;;;;;32.67;19.17;;;;;;;;;;6211197;28;20638;-64
2021/12/08 05:51:03;;;;;;;30.83;18.63;;;;;;;;;;6216250;28;20049;-64
2021/12/08 05:54:08;;;;;;;34.45;20.13;;;;;;;;;;6227332;28;20049;-64
2021/12/08 05:57:11;;;;;;;;;;;;;;;;;;6220807;28;20096;-64
2021/12/08 06:00:19;;;;;;;33.95;19.00;;;;;;;;;;6225060;28;20071;-64
2021/12/08 06:03:21;;;;;;;34.55;20.73;;;;;;;;;;6218433;28;20088;-64
2021/12/08 06:06:23;;;;;;;34.97;19.83;;;;;;;;;;6217284;28;20053;-64
2021/12/08 06:09:27;;;;;;;35.75;20.65;;;;;;;;;;6231840;28;20033;-64
2021/12/08 06:12:29;;;;;;;31.15;18.83;;;;;;;;;;6219629;28;20042;-64
2021/12/08 06:15:32;;;;;;;33.25;20.17;;;;;;;;;;6214920;28;20136;-64
2021/12/08 06:18:38;;;;;;;45.28;21.10;;;;;;;;;;6231028;28;20049;-64
2021/12/08 06:21:40;;;;;;;32.28;19.85;;;;;;;;;;6215954;28;20041;-64
2021/12/08 06:24:42;;;;;;;39.72;20.98;;;;;;;;;;6228980;28;20136;-64
2021/12/08 06:27:45;;;;;;;36.97;20.98;;;;;;;;;;6219830;28;20041;-64
2021/12/08 06:30:51;;;;;;;39.03;21.42;;;;;;;;;;6214036;28;20467;-64
2021/12/08 06:33:53;;;;;;;40.17;21.65;;;;;;;;;;6225922;28;20378;-64
2021/12/08 06:37:02;;;;;;;38.47;21.65;;;;;;;;;;6218932;28;20115;-64
2021/12/08 06:40:13;;;;;;;37.58;21.13;;;;;;;;;;6227202;28;20127;-64
2021/12/08 06:43:18;;;;;;;38.20;21.20;;;;;;;;;;6223634;28;20124;-64
2021/12/08 06:46:21;;;;;;;37.17;20.98;;;;;;;;;;6208653;28;20635;-64
2021/12/08 06:49:24;;;;;;;37.93;20.60;;;;;;;;;;6223726;28;20069;-64
2021/12/08 06:52:29;;;;;;;37.75;21.60;;;;;;;;;;6220250;28;20049;-64
2021/12/08 06:55:33;;;;;;;37.17;21.20;;;;;;;;;;6215066;28;20079;-64
2021/12/08 06:58:37;;;;;;;36.13;21.48;;;;;;;;;;6228194;28;20128;-64
2021/12/08 07:01:48;;;;;;;37.65;20.92;;;;;;;;;;6213390;28;20188;-64
2021/12/08 07:04:57;;;;;;;37.15;20.60;;;;;;;;;;6226114;28;20057;-64
2021/12/08 07:08:02;;;;;;;41.05;22.70;;;;;;;;;;6215096;28;20057;-64
2021/12/08 07:11:07;;;;;;;38.40;21.10;;;;;;;;;;6223030;28;20519;-64
2021/12/08 07:14:09;;;;;;;37.22;20.20;;;;;;;;;;6229078;28;20084;-64
2021/12/08 07:17:18;;;;;;;35.83;21.05;;;;;;;;;;6213928;28;20120;-64
2021/12/08 07:20:40;;;;;;;36.35;19.58;;;;;;;;;;6214433;28;20052;-65
2021/12/08 07:23:46;;;;;;;30.83;17.70;;;;;;;;;;6214561;28;20405;-64
2021/12/08 07:26:52;;;;;;;31.55;17.65;;;;;;;;;;6226273;28;20058;-64
2021/12/08 07:29:55;;;;;;;31.15;18.40;;;;;;;;;;6236476;28;20133;-64
2021/12/08 07:33:00;;;;;;;32.33;19.02;;;;;;;;;;6213018;28;20092;-64
2021/12/08 07:36:09;;;;;;;32.15;18.05;;;;;;;;;;6222440;28;20519;-64
2021/12/08 07:39:16;;;;;;;30.33;17.63;;;;;;;;;;6241672;28;20632;-64
2021/12/08 07:42:23;;;;;;;27.05;15.65;;;;;;;;;;6235342;28;20065;-65
2021/12/08 07:45:31;;;;;;;34.63;17.45;;;;;;;;;;6226396;28;20248;-65
2021/12/08 07:48:40;;;;;;;28.48;16.30;;;;;;;;;;6240329;28;20061;-65
2021/12/08 07:51:47;;;;;;;26.92;15.93;;;;;;;;;;6225485;28;20192;-65
2021/12/08 07:54:49;;;;;;;25.50;15.00;;;;;;;;;;6230624;28;20068;-65
2021/12/08 07:57:51;;;;;;;30.80;16.75;;;;;;;;;;6223666;28;20481;-64
2021/12/08 08:00:55;;;;;;;29.33;15.93;;;;;;;;;;6215358;28;20092;-64
2021/12/08 08:03:58;;;;;;;;;;;;;;;;;;6228152;28;20050;-64
2021/12/08 08:07:01;;;;;;;25.75;14.80;;;;;;;;;;6221132;28;19925;-64
2021/12/08 08:10:13;;;;;;;28.45;15.00;;;;;;;;;;6228417;28;20052;-64
2021/12/08 08:13:17;;;;;;;25.17;14.98;;;;;;;;;;6226975;28;20037;-65
2021/12/08 08:16:20;;;;;;;;;;;;;;;;;;6214420;28;20508;-64
2021/12/08 08:19:28;;;;;;;24.33;14.15;;;;;;;;;;6225290;28;19921;-64
2021/12/08 08:22:31;;;;;;;25.83;14.75;;;;;;;;;;6218448;28;20042;-64
2021/12/08 08:25:36;;;;;;;28.30;14.40;;;;;;;;;;6221206;28;20515;-64
2021/12/08 08:28:40;;;;;;;28.67;15.68;;;;;;;;;;6233857;28;20042;-64
2021/12/08 08:31:43;;;;;;;25.15;14.25;;;;;;;;;;6216433;28;20675;-64
2021/12/08 08:34:49;;;;;;;24.85;14.70;;;;;;;;;;6226031;28;20057;-65
2021/12/08 08:37:52;;;;;;;26.40;13.93;;;;;;;;;;6216940;28;20128;-64
2021/12/08 08:40:57;;;;;;;22.67;13.52;;;;;;;;;;6224071;28;20175;-64
2021/12/08 08:44:03;;;;;;;25.23;12.90;;;;;;;;;;6229529;28;20610;-64
2021/12/08 08:47:09;;;;;;;24.80;12.93;;;;;;;;;;6211753;28;20069;-64
2021/12/08 08:50:17;;;;;;;24.33;13.95;;;;;;;;;;6223080;28;20601;-64
2021/12/08 08:53:19;;;;;;;26.05;15.00;;;;;;;;;;6226785;28;20178;-64
2021/12/08 08:56:24;;;;;;;26.75;15.27;;;;;;;;;;6223017;28;20051;-64
2021/12/08 08:59:28;;;;;;;29.92;16.05;;;;;;;;;;6224238;28;20120;-64
2021/12/08 09:02:38;;;;;;;26.50;14.50;;;;;;;;;;6206845;28;20046;-64
2021/12/08 09:05:45;;;;;;;27.95;15.38;;;;;;;;;;6213888;28;20053;-64
2021/12/08 09:08:47;;;;;;;26.10;14.15;;;;;;;;;;6229918;28;20042;-65
2021/12/08 09:11:52;;;;;;;28.63;15.05;;;;;;;;;;6221284;28;20112;-64
2021/12/08 09:14:57;;;;;;;23.67;14.05;;;;;;;;;;6231111;28;20191;-64
2021/12/08 09:18:02;;;;;;;27.65;13.88;;;;;;;;;;6217255;28;20095;-64
2021/12/08 09:21:14;;;;;;;24.58;14.55;;;;;;;;;;6216775;28;20096;-64
2021/12/08 09:24:21;;;;;;;25.25;14.98;;;;;;;;;;6229761;28;20045;-64
2021/12/08 09:27:28;;;;;;;23.85;14.38;;;;;;;;;;6218701;28;20050;-65
2021/12/08 09:30:34;;;;;;;24.05;13.98;;;;;;;;;;6222674;28;20115;-64
2021/12/08 09:33:39;;;;;;;27.77;16.27;;;;;;;;;;6222546;28;20037;-64
2021/12/08 09:36:46;;;;;;;28.45;15.95;;;;;;;;;;6220904;28;20159;-65
2021/12/08 09:39:51;;;;;;;26.40;16.38;;;;;;;;;;6229982;28;20061;-65
2021/12/08 09:42:56;;;;;;;32.55;17.67;;;;;;;;;;6220396;28;20133;-64
2021/12/08 09:46:00;;;;;;;32.60;18.58;;;;;;;;;;6215771;28;20041;-64
2021/12/08 09:49:04;;;;;;;31.48;17.27;;;;;;;;;;6222381;28;20044;-64
2021/12/08 09:52:08;;;;;;;31.38;17.77;;;;;;;;;;6222793;28;20136;-64
2021/12/08 09:55:10;;;;;;;32.85;17.88;;;;;;;;;;6225136;28;20046;-64
2021/12/08 09:58:12;;;;;;;31.60;18.55;;;;;;;;;;6221564;28;20096;-64
2021/12/08 10:01:18;;;;;;;33.13;18.58;;;;;;;;;;6215521;28;20143;-64
2021/12/08 10:04:20;;;;;;;31.00;18.15;;;;;;;;;;6229026;28;20758;-64
2021/12/08 10:07:24;;;;;;;31.80;18.50;;;;;;;;;;6214620;28;20049;-64
2021/12/08 10:10:26;;;;;;;32.33;18.50;;;;;;;;;;6226570;28;20042;-64
2021/12/08 10:13:29;;;;;;;32.85;19.02;;;;;;;;;;6237812;28;20037;-64
2021/12/08 10:16:32;;;;;;;36.20;21.45;;;;;;;;;;6219931;28;20123;-64
2021/12/08 10:19:34;;;;;;;37.60;21.53;;;;;;;;;;6229203;28;20052;-64
2021/12/08 10:22:37;;;;;;;37.47;21.35;;;;;;;;;;6214716;28;20732;-64
2021/12/08 10:25:41;;;;;;;35.42;20.88;;;;;;;;;;6219312;28;20080;-64
2021/12/08 10:28:44;;;;;;;37.33;20.98;;;;;;;;;;6228163;28;20045;-64
2021/12/08 10:31:49;;;;;;;41.80;22.80;;;;;;;;;;6214301;28;20166;-64
2021/12/08 10:35:04;;;;;;;35.65;21.42;;;;;;;;;;6222385;28;20046;-65
2021/12/08 10:38:07;;;;;;;37.47;20.73;;;;;;;;;;6215690;28;20242;-64
2021/12/08 10:41:09;;;;;;;34.33;20.70;;;;;;;;;;6214276;28;20076;-64
2021/12/08 10:44:11;;;;;;;31.80;20.13;;;;;;;;;;6225629;28;20042;-65
2021/12/08 10:47:15;;;;;;;37.08;20.85;;;;;;;;;;6212602;28;20140;-65
2021/12/08 10:57:01;;;;;;;32.95;20.65;;;;;;;;;;6214680;28;20049;-65
2021/12/08 11:00:07;;;;;;;33.28;19.05;;;;;;;;;;6231390;28;20203;-64
2021/12/08 11:03:11;;;;;;;33.65;20.35;;;;;;;;;;6213424;28;20050;-65
2021/12/08 11:06:15;;;;;;;38.08;20.23;;;;;;;;;;6215716;28;20057;-64
2021/12/08 11:09:20;;;;;;;34.80;20.35;;;;;;;;;;6226714;28;20172;-64
2021/12/08 11:12:21;;;;;;;37.00;20.98;;;;;;;;;;6218182;28;20045;-64
2021/12/08 11:15:23;;;;;;;34.53;20.17;;;;;;;;;;6215246;28;20053;-65
2021/12/08 11:18:29;;;;;;;41.47;22.75;;;;;;;;;;6222900;28;20128;-65
2021/12/08 11:21:36;;;;;;;31.45;19.15;;;;;;;;;;6217584;28;20038;-64
2021/12/08 11:24:45;;;;;;;36.17;20.98;;;;;;;;;;6230646;28;20397;-64
2021/12/08 11:27:47;;;;;;;35.80;20.50;;;;;;;;;;6219978;28;20048;-64
2021/12/08 11:30:49;;;;;;;40.75;21.70;;;;;;;;;;6210583;28;20095;-69
2021/12/08 11:33:59;;;;;;;35.50;21.25;;;;;;;;;;6224941;28;20112;-64
2021/12/08 11:37:03;;;;;;;37.80;20.63;;;;;;;;;;6216193;28;22861;-67
2021/12/08 11:40:15;;;;;;;41.40;23.40;;;;;;;;;;6228854;28;20050;-64
2021/12/08 11:43:17;;;;;;;39.80;22.77;;;;;;;;;;6227030;28;20106;-65
2021/12/08 11:46:19;;;;;;;38.25;24.08;;;;;;;;;;6211850;28;20053;-64
2021/12/08 11:49:22;;;;;;;36.80;22.83;;;;;;;;;;6222523;28;20056;-64
2021/12/08 11:52:29;;;;;;;33.33;21.98;;;;;;;;;;6215790;28;20045;-65
2021/12/08 11:55:35;;;;;;;32.58;21.98;;;;;;;;;;6216882;28;20038;-66
2021/12/08 11:58:54;;;;;;;36.10;21.63;;;;;;;;;;6232240;28;20115;-65
2021/12/08 12:01:56;;;;;;;33.70;22.40;;;;;;;;;;6205750;28;20493;-65
2021/12/08 12:04:58;;;;;;;33.35;21.75;;;;;;;;;;6220099;28;20552;-65
2021/12/08 12:08:01;;;;;;;35.63;22.92;;;;;;;;;;6221331;28;20099;-65
2021/12/08 12:11:04;;;;;;;38.10;21.38;;;;;;;;;;6218048;28;20481;-65
2021/12/08 12:14:06;;;;;;;35.50;21.67;;;;;;;;;;6233689;28;20042;-65
2021/12/08 12:17:07;;;;;;;33.92;21.25;;;;;;;;;;6214865;28;20045;-65
2021/12/08 12:20:14;;;;;;;30.05;19.17;;;;;;;;;;6219544;28;20188;-65
2021/12/08 12:23:27;;;;;;;29.75;19.40;;;;;;;;;;6225951;28;20436;-65
2021/12/08 12:26:38;;;;;;;33.30;19.25;;;;;;;;;;6224338;28;20056;-65
2021/12/08 12:29:51;;;;;;;33.97;20.13;;;;;;;;;;6229441;28;20192;-64
2021/12/08 12:32:54;;;;;;;29.77;18.35;;;;;;;;;;6220462;28;20362;-65
2021/12/08 12:35:58;;;;;;;25.65;17.35;;;;;;;;;;6215157;28;20136;-65
2021/12/08 12:39:14;;;;;;;30.50;17.20;;;;;;;;;;6229758;28;20132;-65
2021/12/08 12:42:18;;;;;;;27.42;17.15;;;;;;;;;;6229926;28;20178;-65
2021/12/08 12:45:21;;;;;;;;;;;;;;;;;;6228362;28;20168;-65
2021/12/08 12:48:27;;;;;;;28.17;16.45;;;;;;;;;;6223516;28;20521;-64
2021/12/08 12:51:31;;;;;;;24.30;15.32;;;;;;;;;;6216027;28;20060;-65
2021/12/08 12:54:33;;;;;;;26.13;16.17;;;;;;;;;;6227388;28;20072;-64
2021/12/08 12:58:10;;;;;;;28.35;16.67;;;;;;;;;;6222052;28;20042;-64
2021/12/08 13:01:13;;;;;;;26.00;16.30;;;;;;;;;;6214205;28;20041;-65
2021/12/08 13:04:20;;;;;;;25.65;16.20;;;;;;;;;;6226756;28;20513;-65
2021/12/08 13:07:22;;;;;;;25.98;16.05;;;;;;;;;;6218874;28;20038;-65
2021/12/08 13:10:29;;;;;;;24.50;15.73;;;;;;;;;;6220766;28;20121;-65
2021/12/08 13:13:45;;;;;;;26.27;15.95;;;;;;;;;;6233292;28;20532;-64
2021/12/08 13:16:47;;;;;;;27.23;17.27;;;;;;;;;;6206031;28;20102;-65
2021/12/08 13:19:51;;;;;;;27.27;17.02;;;;;;;;;;6234899;28;20064;-64
2021/12/08 13:22:55;;;;;;;25.02;16.50;;;;;;;;;;6222271;28;20147;-64
2021/12/08 13:26:01;;;;;;;26.00;16.52;;;;;;;;;;6217880;28;20479;-65
2021/12/08 13:29:20;;;;;;;28.27;17.30;;;;;;;;;;6228821;28;20067;-65
2021/12/08 13:32:44;;;;;;;32.05;18.05;;;;;;;;;;6213141;28;20103;-65
2021/12/08 13:35:46;;;;;;;29.42;17.30;;;;;;;;;;6214016;28;20469;-65
2021/12/08 13:39:07;;;;;;;28.27;18.35;;;;;;;;;;6225865;28;20052;-64
2021/12/08 13:42:11;;;;;;;27.42;17.88;;;;;;;;;;6226466;28;20457;-64
2021/12/08 13:45:16;;;;;;;28.38;15.15;;;;;;;;;;6219886;28;20052;-65
2021/12/08 13:48:18;;;;;;;27.52;16.83;;;;;;;;;;6231311;28;20045;-64
2021/12/08 13:51:22;;;;;;;31.00;18.52;;;;;;;;;;6227131;28;20053;-64
2021/12/08 13:54:29;;;;;;;28.65;17.40;;;;;;;;;;6234336;28;20706;-65
2021/12/08 13:57:37;;;;;;;35.35;20.23;;;;;;;;;;6210382;28;20095;-64
2021/12/08 14:00:41;;;;;;;30.67;19.42;;;;;;;;;;6211241;28;20080;-64
2021/12/08 14:03:46;;;;;;;36.65;19.92;;;;;;;;;;6227835;28;20054;-64
2021/12/08 14:06:47;;;;;;;;;;;;;;;;;;6222317;28;20045;-65
2021/12/08 14:09:49;;;;;;;31.92;18.65;;;;;;;;;;6231626;28;19967;-64
2021/12/08 14:12:54;;;;;;;34.70;20.52;;;;;;;;;;6222820;28;20050;-64
2021/12/08 14:16:00;;;;;;;37.40;21.05;;;;;;;;;;6210892;28;20409;-64
2021/12/08 14:19:02;;;;;;;33.70;19.75;;;;;;;;;;6218056;28;21812;-64
2021/12/08 14:22:04;;;;;;;35.33;20.85;;;;;;;;;;6206446;28;20065;-64
2021/12/08 14:25:06;;;;;;;33.78;20.38;;;;;;;;;;6224488;28;20192;-65
2021/12/08 14:28:38;;;;;;;35.78;20.25;;;;;;;;;;6217805;28;20165;-65
2021/12/08 14:31:44;;;;;;;37.55;20.63;;;;;;;;;;6186051;28;20041;-65
2021/12/08 14:34:45;;;;;;;35.75;21.33;;;;;;;;;;6228257;28;20059;-67
2021/12/08 14:37:47;;;;;;;31.85;19.08;;;;;;;;;;6207524;28;20034;-65
2021/12/08 14:40:50;;;;;;;33.00;20.27;;;;;;;;;;6216762;28;20176;-66
2021/12/08 14:43:53;;;;;;;30.85;19.33;;;;;;;;;;6222360;28;20190;-65
2021/12/08 14:47:02;;;;;;;32.60;20.83;;;;;;;;;;6205087;28;20050;-65
2021/12/08 14:50:07;;;;;;;28.23;18.50;;;;;;;;;;6210570;28;20077;-65
2021/12/08 14:53:12;;;;;;;;;;;;;;;;;;6222782;28;20132;-65
2021/12/08 14:56:15;;;;;;;30.25;18.95;;;;;;;;;;6212194;28;20339;-65
2021/12/08 14:59:16;;;;;;;29.80;18.38;;;;;;;;;;6227410;28;20490;-64
2021/12/08 15:02:26;;;;;;;31.17;19.20;;;;;;;;;;6210289;28;20624;-65
2021/12/08 15:05:27;;;;;;;35.05;19.60;;;;;;;;;;6218741;28;20142;-65
2021/12/08 15:08:29;;;;;;;29.17;20.00;;;;;;;;;;6226859;28;20154;-64
2021/12/08 15:11:31;;;;;;;32.63;19.75;;;;;;;;;;6223959;28;20114;-64
2021/12/08 15:14:40;;;;;;;30.48;18.52;;;;;;;;;;6230507;28;20065;-64
2021/12/08 15:17:47;;;;;;;34.80;20.63;;;;;;;;;;6208714;28;20551;-65
2021/12/08 15:20:59;;;;;;;35.00;20.67;;;;;;;;;;6214030;28;20176;-65
2021/12/08 15:24:04;;;;;;;31.13;20.60;;;;;;;;;;6226942;28;20444;-65
2021/12/08 15:27:13;;;;;;;30.50;19.63;;;;;;;;;;6215679;28;20046;-65
2021/12/08 15:30:17;;;;;;;28.42;17.88;;;;;;;;;;6220470;28;20121;-65
2021/12/08 15:33:20;;;;;;;30.60;20.10;;;;;;;;;;6208924;28;20635;-65
2021/12/08 15:36:25;;;;;;;31.13;18.95;;;;;;;;;;6215045;28;20872;-65
2021/12/08 15:39:28;;;;;;;32.42;18.83;;;;;;;;;;6222877;28;20049;-65
2021/12/08 15:42:33;;;;;;;28.63;18.40;;;;;;;;;;6217552;28;20058;-65
2021/12/08 15:45:36;;;;;;;;;;;;;;;;;;6220045;28;20623;-65
2021/12/08 15:48:43;;;;;;;27.92;17.73;;;;;;;;;;6226428;28;19932;-65
2021/12/08 15:51:45;;;;;;;30.67;18.60;;;;;;;;;;6218648;28;20049;-65
2021/12/08 15:54:47;;;;;;;30.65;18.70;;;;;;;;;;6230246;28;20042;-66
2021/12/08 15:57:59;;;;;;;30.10;18.90;;;;;;;;;;6226351;28;20045;-65
2021/12/08 16:01:01;;;;;;;29.60;17.27;;;;;;;;;;6213778;28;20058;-65
2021/12/08 16:04:08;;;;;;;30.23;17.95;;;;;;;;;;6227084;28;20140;-65
2021/12/08 16:07:12;;;;;;;27.08;16.60;;;;;;;;;;6219468;28;20057;-65
2021/12/08 16:10:18;;;;;;;29.17;17.10;;;;;;;;;;6227285;28;20038;-66
2021/12/08 16:13:22;;;;;;;27.88;17.38;;;;;;;;;;6231797;28;20057;-65
2021/12/08 16:16:30;;;;;;;27.60;17.10;;;;;;;;;;6214375;28;20029;-65
2021/12/08 16:19:39;;;;;;;28.33;16.65;;;;;;;;;;6233942;28;20106;-65
2021/12/08 16:22:41;;;;;;;26.20;16.00;;;;;;;;;;6212897;28;20080;-65
2021/12/08 16:25:42;;;;;;;26.13;16.05;;;;;;;;;;6220175;28;20045;-65
2021/12/08 16:28:44;;;;;;;21.65;14.60;;;;;;;;;;6229700;28;20049;-66
2021/12/08 16:31:45;;;;;;;22.67;14.50;;;;;;;;;;6222165;28;20053;-65
2021/12/08 16:34:50;;;;;;;20.73;13.38;;;;;;;;;;6230380;28;20041;-66
2021/12/08 16:37:52;;;;;;;23.77;14.85;;;;;;;;;;6222879;28;20552;-65
2021/12/08 16:44:11;;;;;;;20.40;13.63;;;;;;;;;;6200020;28;20045;-65
2021/12/08 16:47:14;;;;;;;24.92;14.20;;;;;;;;;;6211163;28;20046;-65
2021/12/08 16:50:21;;;;;;;21.33;13.82;;;;;;;;;;6219008;28;20134;-65
2021/12/08 16:53:23;;;;;;;25.90;14.43;;;;;;;;;;6228806;28;20045;-65
2021/12/08 16:56:24;;;;;;;24.52;15.25;;;;;;;;;;6215351;28;20045;-65
2021/12/08 16:59:26;;;;;;;24.92;15.73;;;;;;;;;;6227403;28;20181;-65
2021/12/08 17:02:28;;;;;;;23.88;15.02;;;;;;;;;;6212122;28;20042;-65
2021/12/08 17:05:31;;;;;;;26.27;14.98;;;;;;;;;;6214900;28;20837;-65
2021/12/08 17:08:32;;;;;;;27.70;15.88;;;;;;;;;;6230215;28;20123;-65
2021/12/08 17:11:34;;;;;;;25.25;15.27;;;;;;;;;;6221650;28;20064;-65
2021/12/08 17:14:36;;;;;;;22.73;14.73;;;;;;;;;;6225740;28;20578;-65
2021/12/08 17:17:38;;;;;;;22.70;15.70;;;;;;;;;;6205066;28;20054;-65
2021/12/08 17:20:44;;;;;;;24.25;14.80;;;;;;;;;;6222244;28;20510;-65
2021/12/08 17:23:46;;;;;;;24.80;14.90;;;;;;;;;;6227484;28;20050;-65
2021/12/08 17:26:47;;;;;;;24.38;15.65;;;;;;;;;;6215347;28;20122;-65
2021/12/08 17:29:49;;;;;;;26.25;15.55;;;;;;;;;;6227269;28;20073;-65
2021/12/08 17:32:52;;;;;;;22.83;13.95;;;;;;;;;;6203952;28;20041;-65
2021/12/08 17:35:56;;;;;;;23.83;14.93;;;;;;;;;;6214196;28;20557;-65
2021/12/08 17:38:57;;;;;;;22.55;13.63;;;;;;;;;;6221392;28;20049;-65
2021/12/08 17:42:00;;;;;;;23.23;14.07;;;;;;;;;;6215630;28;20439;-65
2021/12/08 17:45:03;;;;;;;25.65;13.93;;;;;;;;;;6227255;28;20049;-65
2021/12/08 17:48:05;;;;;;;24.50;14.95;;;;;;;;;;6206442;28;20045;-65
2021/12/08 17:51:10;;;;;;;24.83;14.73;;;;;;;;;;6211925;28;20061;-65
2021/12/08 17:54:12;;;;;;;24.85;15.05;;;;;;;;;;6229427;28;20494;-65
2021/12/08 17:57:13;;;;;;;25.73;15.43;;;;;;;;;;6213437;28;20127;-65
2021/12/08 18:00:18;;;;;;;26.00;15.73;;;;;;;;;;6221544;28;20141;-65
2021/12/08 18:03:21;;;;;;;30.38;17.25;;;;;;;;;;6210159;28;20045;-65
2021/12/08 18:06:25;;;;;;;30.83;18.90;;;;;;;;;;6220734;28;20116;-65
2021/12/08 18:09:28;;;;;;;38.20;21.95;;;;;;;;;;6233562;28;20048;-65
2021/12/08 18:12:29;;;;;;;36.53;21.85;;;;;;;;;;6217785;28;20145;-65
2021/12/08 18:15:31;;;;;;;37.15;21.77;;;;;;;;;;6211657;28;20989;-66
2021/12/08 18:18:33;;;;;;;39.13;22.63;;;;;;;;;;6221374;28;20053;-66
2021/12/08 18:21:35;;;;;;;37.95;21.95;;;;;;;;;;6216872;28;20042;-65
2021/12/08 18:24:37;;;;;;;38.70;22.75;;;;;;;;;;6227562;28;20063;-66
2021/12/08 18:27:39;;;;;;;36.85;22.25;;;;;;;;;;6222172;28;20071;-65
2021/12/08 18:30:43;;;;;;;40.78;23.10;;;;;;;;;;6214389;28;20045;-65
2021/12/08 18:33:47;;;;;;;38.60;22.33;;;;;;;;;;6223629;28;20115;-66
2021/12/08 18:36:50;;;;;;;40.20;24.30;;;;;;;;;;6216358;28;20409;-66